Terminal Aerodrome Forecast
Issued by NWS

Home | Current Version | Previous Version | Text Only | Print | Product List | Glossary On
Versions: 1 2 3 4 5 6 7 8 9 10 11 12
893
FTUS45 KVEF 200535
TAFHND
TAF
KHND 200535Z 2006/2106 20011KT P6SM SKC
     FM201400 VRB05KT P6SM SKC
     FM201900 15011G18KT P6SM SCT130
     FM210200 19012KT P6SM BKN100=

USA.gov is the U.S. government's official web portal to all federal, state and local government web resources and services.